sensor_id;sensor_type;location;lat;lon;timestamp;temperature;humidity
19972;DHT22;10147;16.402;102.848;2023-04-24T00:01:50;24.70;99.90
19972;DHT22;10147;16.402;102.848;2023-04-24T00:04:20;24.50;99.90
19972;DHT22;10147;16.402;102.848;2023-04-24T00:06:52;24.60;99.90
19972;DHT22;10147;16.402;102.848;2023-04-24T00:09:26;24.60;99.90
19972;DHT22;10147;16.402;102.848;2023-04-24T00:11:56;24.50;99.90
19972;DHT22;10147;16.402;102.848;2023-04-24T00:14:27;24.60;99.90
19972;DHT22;10147;16.402;102.848;2023-04-24T00:16:59;24.90;99.90
19972;DHT22;10147;16.402;102.848;2023-04-24T00:19:29;24.80;99.90
19972;DHT22;10147;16.402;102.848;2023-04-24T00:22:00;24.90;99.90
19972;DHT22;10147;16.402;102.848;2023-04-24T00:24:30;24.80;99.90
19972;DHT22;10147;16.402;102.848;2023-04-24T00:27:01;24.70;99.90
19972;DHT22;10147;16.402;102.848;2023-04-24T00:29:32;24.40;99.90
19972;DHT22;10147;16.402;102.848;2023-04-24T00:32:02;24.30;99.90
19972;DHT22;10147;16.402;102.848;2023-04-24T00:34:33;24.40;99.90
19972;DHT22;10147;16.402;102.848;2023-04-24T00:37:03;24.50;99.90
19972;DHT22;10147;16.402;102.848;2023-04-24T00:39:36;24.50;99.90
19972;DHT22;10147;16.402;102.848;2023-04-24T00:42:08;24.50;99.90
19972;DHT22;10147;16.402;102.848;2023-04-24T00:44:39;24.60;99.90
19972;DHT22;10147;16.402;102.848;2023-04-24T00:47:10;24.40;99.90
19972;DHT22;10147;16.402;102.848;2023-04-24T00:49:41;24.40;99.90
19972;DHT22;10147;16.402;102.848;2023-04-24T00:52:11;24.60;99.90
19972;DHT22;10147;16.402;102.848;2023-04-24T00:54:42;24.70;99.90
19972;DHT22;10147;16.402;102.848;2023-04-24T00:57:13;24.70;99.90
19972;DHT22;10147;16.402;102.848;2023-04-24T00:59:45;24.80;99.90
19972;DHT22;10147;16.402;102.848;2023-04-24T01:02:15;25.00;99.90
19972;DHT22;10147;16.402;102.848;2023-04-24T01:04:46;25.00;99.90
19972;DHT22;10147;16.402;102.848;2023-04-24T01:07:19;25.10;99.90
19972;DHT22;10147;16.402;102.848;2023-04-24T01:09:51;25.00;99.90
19972;DHT22;10147;16.402;102.848;2023-04-24T01:12:21;25.10;99.90
19972;DHT22;10147;16.402;102.848;2023-04-24T01:14:52;25.10;99.90
19972;DHT22;10147;16.402;102.848;2023-04-24T01:17:22;25.20;99.90
19972;DHT22;10147;16.402;102.848;2023-04-24T01:19:53;25.30;99.90
19972;DHT22;10147;16.402;102.848;2023-04-24T01:22:27;25.40;99.90
19972;DHT22;10147;16.402;102.848;2023-04-24T01:24:57;25.40;99.90
19972;DHT22;10147;16.402;102.848;2023-04-24T01:27:30;25.50;99.90
19972;DHT22;10147;16.402;102.848;2023-04-24T01:30:00;25.60;99.90
19972;DHT22;10147;16.402;102.848;2023-04-24T01:32:31;25.50;99.90
19972;DHT22;10147;16.402;102.848;2023-04-24T01:35:02;25.60;99.90
19972;DHT22;10147;16.402;102.848;2023-04-24T01:37:35;25.80;99.90
19972;DHT22;10147;16.402;102.848;2023-04-24T01:40:07;25.70;99.90
19972;DHT22;10147;16.402;102.848;2023-04-24T01:42:38;25.80;99.90
19972;DHT22;10147;16.402;102.848;2023-04-24T01:45:11;25.80;99.90
19972;DHT22;10147;16.402;102.848;2023-04-24T01:47:44;25.80;99.90
19972;DHT22;10147;16.402;102.848;2023-04-24T01:50:17;25.80;99.90
19972;DHT22;10147;16.402;102.848;2023-04-24T01:52:48;25.80;99.90
19972;DHT22;10147;16.402;102.848;2023-04-24T01:55:18;25.90;99.90
19972;DHT22;10147;16.402;102.848;2023-04-24T01:57:49;25.80;99.90
19972;DHT22;10147;16.402;102.848;2023-04-24T02:00:21;26.00;99.90
19972;DHT22;10147;16.402;102.848;2023-04-24T02:02:53;26.00;99.90
19972;DHT22;10147;16.402;102.848;2023-04-24T02:05:26;26.10;99.90
19972;DHT22;10147;16.402;102.848;2023-04-24T02:07:57;26.10;99.90
19972;DHT22;10147;16.402;102.848;2023-04-24T02:10:29;26.20;99.90
19972;DHT22;10147;16.402;102.848;2023-04-24T02:13:01;26.30;99.90
19972;DHT22;10147;16.402;102.848;2023-04-24T02:15:33;26.50;99.90
19972;DHT22;10147;16.402;102.848;2023-04-24T02:18:05;26.60;99.90
19972;DHT22;10147;16.402;102.848;2023-04-24T02:20:37;26.90;99.90
19972;DHT22;10147;16.402;102.848;2023-04-24T02:23:07;26.90;99.90
19972;DHT22;10147;16.402;102.848;2023-04-24T02:25:39;27.00;99.90
19972;DHT22;10147;16.402;102.848;2023-04-24T02:28:09;27.10;99.90
19972;DHT22;10147;16.402;102.848;2023-04-24T02:30:39;27.20;99.90
19972;DHT22;10147;16.402;102.848;2023-04-24T02:33:09;27.30;99.90
19972;DHT22;10147;16.402;102.848;2023-04-24T02:35:40;27.40;99.90
19972;DHT22;10147;16.402;102.848;2023-04-24T02:38:11;27.50;99.90
19972;DHT22;10147;16.402;102.848;2023-04-24T02:40:43;27.50;99.90
19972;DHT22;10147;16.402;102.848;2023-04-24T02:43:14;27.60;99.90
19972;DHT22;10147;16.402;102.848;2023-04-24T02:45:44;27.70;99.90
19972;DHT22;10147;16.402;102.848;2023-04-24T02:48:16;27.80;99.90
19972;DHT22;10147;16.402;102.848;2023-04-24T02:50:46;28.00;99.90
19972;DHT22;10147;16.402;102.848;2023-04-24T02:53:19;28.10;99.90
19972;DHT22;10147;16.402;102.848;2023-04-24T02:55:49;28.20;99.90
19972;DHT22;10147;16.402;102.848;2023-04-24T02:58:20;28.10;99.90
19972;DHT22;10147;16.402;102.848;2023-04-24T03:00:54;28.00;99.90
19972;DHT22;10147;16.402;102.848;2023-04-24T03:03:25;28.10;99.90
19972;DHT22;10147;16.402;102.848;2023-04-24T03:05:56;28.20;99.90
19972;DHT22;10147;16.402;102.848;2023-04-24T03:08:26;28.30;99.90
19972;DHT22;10147;16.402;102.848;2023-04-24T03:10:58;28.40;99.90
19972;DHT22;10147;16.402;102.848;2023-04-24T03:13:32;28.60;99.90
19972;DHT22;10147;16.402;102.848;2023-04-24T03:16:05;28.60;99.90
19972;DHT22;10147;16.402;102.848;2023-04-24T03:18:36;28.50;99.90
19972;DHT22;10147;16.402;102.848;2023-04-24T03:21:09;28.50;99.90
19972;DHT22;10147;16.402;102.848;2023-04-24T03:23:44;28.30;99.90
19972;DHT22;10147;16.402;102.848;2023-04-24T03:26:15;28.50;99.90
19972;DHT22;10147;16.402;102.848;2023-04-24T03:29:01;28.70;99.90
19972;DHT22;10147;16.402;102.848;2023-04-24T03:31:34;28.60;99.90
19972;DHT22;10147;16.402;102.848;2023-04-24T03:34:04;28.50;99.90
19972;DHT22;10147;16.402;102.848;2023-04-24T03:36:35;28.70;99.90
19972;DHT22;10147;16.402;102.848;2023-04-24T03:39:07;28.80;99.90
19972;DHT22;10147;16.402;102.848;2023-04-24T03:41:48;28.60;99.90
19972;DHT22;10147;16.402;102.848;2023-04-24T03:44:25;28.80;99.90
19972;DHT22;10147;16.402;102.848;2023-04-24T03:46:58;28.90;99.90
19972;DHT22;10147;16.402;102.848;2023-04-24T03:49:29;29.00;99.90
19972;DHT22;10147;16.402;102.848;2023-04-24T03:52:02;28.90;99.90
19972;DHT22;10147;16.402;102.848;2023-04-24T03:54:32;28.80;99.90
19972;DHT22;10147;16.402;102.848;2023-04-24T03:57:05;28.80;99.90
19972;DHT22;10147;16.402;102.848;2023-04-24T03:59:42;29.10;99.90
19972;DHT22;10147;16.402;102.848;2023-04-24T04:02:18;29.00;99.90
19972;DHT22;10147;16.402;102.848;2023-04-24T04:04:50;28.90;99.90
19972;DHT22;10147;16.402;102.848;2023-04-24T04:07:20;28.90;99.90
19972;DHT22;10147;16.402;102.848;2023-04-24T04:09:51;29.10;99.90
19972;DHT22;10147;16.402;102.848;2023-04-24T04:12:24;29.20;99.90
19972;DHT22;10147;16.402;102.848;2023-04-24T04:14:54;29.30;99.90
19972;DHT22;10147;16.402;102.848;2023-04-24T04:17:25;29.20;99.90
19972;DHT22;10147;16.402;102.848;2023-04-24T04:19:55;29.20;99.90
19972;DHT22;10147;16.402;102.848;2023-04-24T04:22:26;29.30;99.90
19972;DHT22;10147;16.402;102.848;2023-04-24T04:25:07;29.70;99.90
19972;DHT22;10147;16.402;102.848;2023-04-24T04:27:38;29.50;99.90
19972;DHT22;10147;16.402;102.848;2023-04-24T04:30:10;29.80;99.90
19972;DHT22;10147;16.402;102.848;2023-04-24T04:32:53;29.80;99.90
19972;DHT22;10147;16.402;102.848;2023-04-24T04:35:25;30.10;99.90
19972;DHT22;10147;16.402;102.848;2023-04-24T04:37:58;30.40;99.90
19972;DHT22;10147;16.402;102.848;2023-04-24T04:40:44;30.40;99.90
19972;DHT22;10147;16.402;102.848;2023-04-24T04:43:18;30.30;99.90
19972;DHT22;10147;16.402;102.848;2023-04-24T04:45:52;30.60;99.90
19972;DHT22;10147;16.402;102.848;2023-04-24T04:48:44;30.70;99.90
19972;DHT22;10147;16.402;102.848;2023-04-24T04:51:15;30.80;99.90
19972;DHT22;10147;16.402;102.848;2023-04-24T04:53:45;31.10;99.90
19972;DHT22;10147;16.402;102.848;2023-04-24T04:56:16;31.30;99.90
19972;DHT22;10147;16.402;102.848;2023-04-24T04:58:46;31.20;99.90
19972;DHT22;10147;16.402;102.848;2023-04-24T05:01:19;31.20;99.90
19972;DHT22;10147;16.402;102.848;2023-04-24T05:03:50;31.50;99.90
19972;DHT22;10147;16.402;102.848;2023-04-24T05:06:21;31.70;99.90
19972;DHT22;10147;16.402;102.848;2023-04-24T05:08:52;31.60;99.90
19972;DHT22;10147;16.402;102.848;2023-04-24T05:11:40;31.80;99.90
19972;DHT22;10147;16.402;102.848;2023-04-24T05:14:10;31.90;99.90
19972;DHT22;10147;16.402;102.848;2023-04-24T05:16:44;31.80;99.90
19972;DHT22;10147;16.402;102.848;2023-04-24T05:19:18;31.80;99.90
19972;DHT22;10147;16.402;102.848;2023-04-24T05:21:50;31.90;99.90
19972;DHT22;10147;16.402;102.848;2023-04-24T05:24:22;32.00;99.90
19972;DHT22;10147;16.402;102.848;2023-04-24T05:27:07;32.00;99.90
19972;DHT22;10147;16.402;102.848;2023-04-24T05:29:41;32.00;99.90
19972;DHT22;10147;16.402;102.848;2023-04-24T05:32:13;32.20;99.90
19972;DHT22;10147;16.402;102.848;2023-04-24T05:34:44;32.40;99.90
19972;DHT22;10147;16.402;102.848;2023-04-24T05:37:14;32.30;99.90
19972;DHT22;10147;16.402;102.848;2023-04-24T05:39:44;32.30;99.90
19972;DHT22;10147;16.402;102.848;2023-04-24T05:42:15;32.40;99.90
19972;DHT22;10147;16.402;102.848;2023-04-24T05:44:49;32.20;99.90
19972;DHT22;10147;16.402;102.848;2023-04-24T05:47:20;32.30;99.90
19972;DHT22;10147;16.402;102.848;2023-04-24T05:49:52;32.40;99.90
19972;DHT22;10147;16.402;102.848;2023-04-24T05:52:23;32.70;99.90
19972;DHT22;10147;16.402;102.848;2023-04-24T05:54:53;33.10;99.90
19972;DHT22;10147;16.402;102.848;2023-04-24T05:57:26;33.20;99.90
19972;DHT22;10147;16.402;102.848;2023-04-24T06:00:04;33.10;99.90
19972;DHT22;10147;16.402;102.848;2023-04-24T06:02:45;33.40;99.90
19972;DHT22;10147;16.402;102.848;2023-04-24T06:05:15;33.90;99.90
19972;DHT22;10147;16.402;102.848;2023-04-24T06:07:46;33.60;99.90
19972;DHT22;10147;16.402;102.848;2023-04-24T06:10:17;33.60;99.90
19972;DHT22;10147;16.402;102.848;2023-04-24T06:12:47;33.70;99.90
19972;DHT22;10147;16.402;102.848;2023-04-24T06:15:18;33.80;99.90
19972;DHT22;10147;16.402;102.848;2023-04-24T06:17:53;33.80;99.90
19972;DHT22;10147;16.402;102.848;2023-04-24T06:20:24;33.80;99.90
19972;DHT22;10147;16.402;102.848;2023-04-24T06:22:53;34.10;99.90
19972;DHT22;10147;16.402;102.848;2023-04-24T06:25:25;34.20;99.90
19972;DHT22;10147;16.402;102.848;2023-04-24T06:27:57;34.40;99.90
19972;DHT22;10147;16.402;102.848;2023-04-24T06:30:30;34.80;99.90
19972;DHT22;10147;16.402;102.848;2023-04-24T06:33:00;34.60;99.90
19972;DHT22;10147;16.402;102.848;2023-04-24T06:35:46;34.50;99.90
19972;DHT22;10147;16.402;102.848;2023-04-24T06:38:17;34.30;99.90
19972;DHT22;10147;16.402;102.848;2023-04-24T06:40:47;34.20;99.90
19972;DHT22;10147;16.402;102.848;2023-04-24T06:43:16;34.10;99.90
19972;DHT22;10147;16.402;102.848;2023-04-24T06:45:47;34.50;99.90
19972;DHT22;10147;16.402;102.848;2023-04-24T06:48:17;34.60;99.90
19972;DHT22;10147;16.402;102.848;2023-04-24T06:50:47;34.80;99.90
19972;DHT22;10147;16.402;102.848;2023-04-24T06:53:17;34.70;99.90
19972;DHT22;10147;16.402;102.848;2023-04-24T06:55:47;34.50;99.90
19972;DHT22;10147;16.402;102.848;2023-04-24T06:58:18;34.30;99.90
19972;DHT22;10147;16.402;102.848;2023-04-24T07:00:48;34.30;99.90
19972;DHT22;10147;16.402;102.848;2023-04-24T07:03:19;34.10;99.90
19972;DHT22;10147;16.402;102.848;2023-04-24T07:05:49;34.00;99.90
19972;DHT22;10147;16.402;102.848;2023-04-24T07:08:20;33.70;99.90
19972;DHT22;10147;16.402;102.848;2023-04-24T07:10:51;33.50;99.90
19972;DHT22;10147;16.402;102.848;2023-04-24T07:13:21;33.90;99.90
19972;DHT22;10147;16.402;102.848;2023-04-24T07:15:53;33.80;99.90
19972;DHT22;10147;16.402;102.848;2023-04-24T07:18:24;33.90;99.90
19972;DHT22;10147;16.402;102.848;2023-04-24T07:20:54;34.00;99.90
19972;DHT22;10147;16.402;102.848;2023-04-24T07:23:24;34.00;99.90
19972;DHT22;10147;16.402;102.848;2023-04-24T07:25:54;34.00;99.90
19972;DHT22;10147;16.402;102.848;2023-04-24T07:28:24;34.30;99.90
19972;DHT22;10147;16.402;102.848;2023-04-24T07:30:53;34.20;99.90
19972;DHT22;10147;16.402;102.848;2023-04-24T07:33:23;34.00;99.90
19972;DHT22;10147;16.402;102.848;2023-04-24T07:35:53;34.00;99.90
19972;DHT22;10147;16.402;102.848;2023-04-24T07:38:23;33.90;99.90
19972;DHT22;10147;16.402;102.848;2023-04-24T07:40:55;34.00;99.90
19972;DHT22;10147;16.402;102.848;2023-04-24T07:43:25;34.20;99.90
19972;DHT22;10147;16.402;102.848;2023-04-24T07:45:55;34.40;99.90
19972;DHT22;10147;16.402;102.848;2023-04-24T07:48:25;34.70;99.90
19972;DHT22;10147;16.402;102.848;2023-04-24T07:50:55;34.40;99.90
19972;DHT22;10147;16.402;102.848;2023-04-24T07:53:25;34.20;99.90
19972;DHT22;10147;16.402;102.848;2023-04-24T07:55:56;34.20;99.90
19972;DHT22;10147;16.402;102.848;2023-04-24T07:58:27;33.90;99.90
19972;DHT22;10147;16.402;102.848;2023-04-24T08:00:59;34.10;99.90
19972;DHT22;10147;16.402;102.848;2023-04-24T08:03:28;34.40;99.90
19972;DHT22;10147;16.402;102.848;2023-04-24T08:05:59;34.00;99.90
19972;DHT22;10147;16.402;102.848;2023-04-24T08:08:30;33.70;99.90
19972;DHT22;10147;16.402;102.848;2023-04-24T08:10:59;33.80;99.90
19972;DHT22;10147;16.402;102.848;2023-04-24T08:13:29;33.70;99.90
19972;DHT22;10147;16.402;102.848;2023-04-24T08:16:00;33.80;99.90
19972;DHT22;10147;16.402;102.848;2023-04-24T08:18:30;34.00;99.90
19972;DHT22;10147;16.402;102.848;2023-04-24T08:21:01;34.00;99.90
19972;DHT22;10147;16.402;102.848;2023-04-24T08:23:31;34.30;99.90
19972;DHT22;10147;16.402;102.848;2023-04-24T08:26:00;34.40;99.90
19972;DHT22;10147;16.402;102.848;2023-04-24T08:28:31;34.20;99.90
19972;DHT22;10147;16.402;102.848;2023-04-24T08:31:01;34.10;99.90
19972;DHT22;10147;16.402;102.848;2023-04-24T08:33:31;34.40;99.90
19972;DHT22;10147;16.402;102.848;2023-04-24T08:36:05;34.10;99.90
19972;DHT22;10147;16.402;102.848;2023-04-24T08:38:35;34.30;99.90
19972;DHT22;10147;16.402;102.848;2023-04-24T08:41:05;34.30;99.90
19972;DHT22;10147;16.402;102.848;2023-04-24T08:43:37;34.40;99.90
19972;DHT22;10147;16.402;102.848;2023-04-24T08:46:08;34.40;99.90
19972;DHT22;10147;16.402;102.848;2023-04-24T08:48:40;34.30;99.90
19972;DHT22;10147;16.402;102.848;2023-04-24T08:51:09;34.10;99.90
19972;DHT22;10147;16.402;102.848;2023-04-24T08:53:40;34.30;99.90
19972;DHT22;10147;16.402;102.848;2023-04-24T08:56:10;34.40;99.90
19972;DHT22;10147;16.402;102.848;2023-04-24T08:58:41;34.00;99.90
19972;DHT22;10147;16.402;102.848;2023-04-24T09:01:11;34.10;99.90
19972;DHT22;10147;16.402;102.848;2023-04-24T09:03:41;34.30;99.90
19972;DHT22;10147;16.402;102.848;2023-04-24T09:06:12;34.20;99.90
19972;DHT22;10147;16.402;102.848;2023-04-24T09:08:44;34.00;99.90
19972;DHT22;10147;16.402;102.848;2023-04-24T09:11:15;34.00;99.90
19972;DHT22;10147;16.402;102.848;2023-04-24T09:13:45;34.10;99.90
19972;DHT22;10147;16.402;102.848;2023-04-24T09:16:16;34.20;99.90
19972;DHT22;10147;16.402;102.848;2023-04-24T09:18:46;34.10;99.90
19972;DHT22;10147;16.402;102.848;2023-04-24T09:21:16;34.30;99.90
19972;DHT22;10147;16.402;102.848;2023-04-24T09:23:46;34.20;99.90
19972;DHT22;10147;16.402;102.848;2023-04-24T09:26:17;34.10;99.90
19972;DHT22;10147;16.402;102.848;2023-04-24T09:28:54;34.20;99.90
19972;DHT22;10147;16.402;102.848;2023-04-24T09:31:27;34.20;99.90
19972;DHT22;10147;16.402;102.848;2023-04-24T09:34:01;34.30;99.90
19972;DHT22;10147;16.402;102.848;2023-04-24T09:36:37;34.40;99.90
19972;DHT22;10147;16.402;102.848;2023-04-24T09:39:12;34.50;99.90
19972;DHT22;10147;16.402;102.848;2023-04-24T09:41:48;34.10;99.90
19972;DHT22;10147;16.402;102.848;2023-04-24T09:44:24;34.30;99.90
19972;DHT22;10147;16.402;102.848;2023-04-24T09:46:56;34.30;99.90
19972;DHT22;10147;16.402;102.848;2023-04-24T09:49:31;34.10;99.90
19972;DHT22;10147;16.402;102.848;2023-04-24T09:52:09;34.20;99.90
19972;DHT22;10147;16.402;102.848;2023-04-24T09:54:40;34.20;99.90
19972;DHT22;10147;16.402;102.848;2023-04-24T09:57:09;34.10;99.90
19972;DHT22;10147;16.402;102.848;2023-04-24T09:59:45;34.00;99.90
19972;DHT22;10147;16.402;102.848;2023-04-24T10:02:19;34.20;99.90
19972;DHT22;10147;16.402;102.848;2023-04-24T10:04:57;34.10;99.90
19972;DHT22;10147;16.402;102.848;2023-04-24T10:07:28;34.00;99.90
19972;DHT22;10147;16.402;102.848;2023-04-24T10:09:58;34.20;99.90
19972;DHT22;10147;16.402;102.848;2023-04-24T10:12:30;34.10;99.90
19972;DHT22;10147;16.402;102.848;2023-04-24T10:15:09;33.90;99.90
19972;DHT22;10147;16.402;102.848;2023-04-24T10:17:42;33.80;99.90
19972;DHT22;10147;16.402;102.848;2023-04-24T10:20:13;33.90;99.90
19972;DHT22;10147;16.402;102.848;2023-04-24T10:22:44;33.70;99.90
19972;DHT22;10147;16.402;102.848;2023-04-24T10:25:26;33.70;99.90
19972;DHT22;10147;16.402;102.848;2023-04-24T10:27:57;33.60;99.90
19972;DHT22;10147;16.402;102.848;2023-04-24T10:30:31;33.70;99.90
19972;DHT22;10147;16.402;102.848;2023-04-24T10:33:07;33.60;99.90
19972;DHT22;10147;16.402;102.848;2023-04-24T10:35:42;33.60;99.90
19972;DHT22;10147;16.402;102.848;2023-04-24T10:38:15;33.40;99.90
19972;DHT22;10147;16.402;102.848;2023-04-24T10:40:46;33.40;99.90
19972;DHT22;10147;16.402;102.848;2023-04-24T10:43:17;33.40;99.90
19972;DHT22;10147;16.402;102.848;2023-04-24T10:46:08;33.20;99.90
19972;DHT22;10147;16.402;102.848;2023-04-24T10:48:43;33.20;99.90
19972;DHT22;10147;16.402;102.848;2023-04-24T10:51:14;33.10;99.90
19972;DHT22;10147;16.402;102.848;2023-04-24T10:53:44;33.00;99.90
19972;DHT22;10147;16.402;102.848;2023-04-24T10:56:16;33.00;99.90
19972;DHT22;10147;16.402;102.848;2023-04-24T10:58:51;32.90;99.90
19972;DHT22;10147;16.402;102.848;2023-04-24T11:01:28;32.90;99.90
19972;DHT22;10147;16.402;102.848;2023-04-24T11:04:01;32.90;99.90
19972;DHT22;10147;16.402;102.848;2023-04-24T11:06:34;32.90;99.90
19972;DHT22;10147;16.402;102.848;2023-04-24T11:09:08;32.80;99.90
19972;DHT22;10147;16.402;102.848;2023-04-24T11:11:45;32.80;99.90
19972;DHT22;10147;16.402;102.848;2023-04-24T11:14:15;32.80;99.90
19972;DHT22;10147;16.402;102.848;2023-04-24T11:16:52;32.70;99.90
19972;DHT22;10147;16.402;102.848;2023-04-24T11:19:24;32.60;99.90
19972;DHT22;10147;16.402;102.848;2023-04-24T11:22:00;32.50;99.90
19972;DHT22;10147;16.402;102.848;2023-04-24T11:24:50;32.50;99.90
19972;DHT22;10147;16.402;102.848;2023-04-24T11:27:40;32.50;99.90
19972;DHT22;10147;16.402;102.848;2023-04-24T11:30:11;32.40;99.90
19972;DHT22;10147;16.402;102.848;2023-04-24T11:32:42;32.30;99.90
19972;DHT22;10147;16.402;102.848;2023-04-24T11:35:20;32.30;99.90
19972;DHT22;10147;16.402;102.848;2023-04-24T11:37:55;32.30;99.90
19972;DHT22;10147;16.402;102.848;2023-04-24T11:40:28;32.20;99.90
19972;DHT22;10147;16.402;102.848;2023-04-24T11:43:00;32.10;99.90
19972;DHT22;10147;16.402;102.848;2023-04-24T11:45:31;32.10;99.90
19972;DHT22;10147;16.402;102.848;2023-04-24T11:48:01;32.10;99.90
19972;DHT22;10147;16.402;102.848;2023-04-24T11:50:33;32.10;99.90
19972;DHT22;10147;16.402;102.848;2023-04-24T11:53:04;32.10;99.90
19972;DHT22;10147;16.402;102.848;2023-04-24T11:55:34;32.00;99.90
19972;DHT22;10147;16.402;102.848;2023-04-24T11:58:06;31.90;99.90
19972;DHT22;10147;16.402;102.848;2023-04-24T12:00:36;31.90;99.90
19972;DHT22;10147;16.402;102.848;2023-04-24T12:03:11;31.90;99.90
19972;DHT22;10147;16.402;102.848;2023-04-24T12:05:42;32.00;99.90
19972;DHT22;10147;16.402;102.848;2023-04-24T12:08:27;32.00;99.90
19972;DHT22;10147;16.402;102.848;2023-04-24T12:10:59;31.90;99.90
19972;DHT22;10147;16.402;102.848;2023-04-24T12:13:30;31.90;99.90
19972;DHT22;10147;16.402;102.848;2023-04-24T12:16:03;31.70;99.90
19972;DHT22;10147;16.402;102.848;2023-04-24T12:18:34;31.70;99.90
19972;DHT22;10147;16.402;102.848;2023-04-24T12:21:23;31.60;99.90
19972;DHT22;10147;16.402;102.848;2023-04-24T12:23:56;31.60;99.90
19972;DHT22;10147;16.402;102.848;2023-04-24T12:26:26;31.60;99.90
19972;DHT22;10147;16.402;102.848;2023-04-24T12:29:02;31.60;99.90
19972;DHT22;10147;16.402;102.848;2023-04-24T12:31:33;31.50;99.90
19972;DHT22;10147;16.402;102.848;2023-04-24T12:34:03;31.40;99.90
19972;DHT22;10147;16.402;102.848;2023-04-24T12:36:35;31.40;99.90
19972;DHT22;10147;16.402;102.848;2023-04-24T12:39:18;31.40;99.90
19972;DHT22;10147;16.402;102.848;2023-04-24T12:41:56;31.30;99.90
19972;DHT22;10147;16.402;102.848;2023-04-24T12:44:34;31.40;99.90
19972;DHT22;10147;16.402;102.848;2023-04-24T12:47:06;31.30;99.90
19972;DHT22;10147;16.402;102.848;2023-04-24T12:49:38;31.20;99.90
19972;DHT22;10147;16.402;102.848;2023-04-24T12:52:08;31.10;99.90
19972;DHT22;10147;16.402;102.848;2023-04-24T12:54:38;31.20;99.90
19972;DHT22;10147;16.402;102.848;2023-04-24T12:57:08;31.20;99.90
19972;DHT22;10147;16.402;102.848;2023-04-24T12:59:38;31.10;99.90
19972;DHT22;10147;16.402;102.848;2023-04-24T13:02:08;30.90;99.90
19972;DHT22;10147;16.402;102.848;2023-04-24T13:04:39;30.70;99.90
19972;DHT22;10147;16.402;102.848;2023-04-24T13:07:09;30.70;99.90
19972;DHT22;10147;16.402;102.848;2023-04-24T13:09:41;30.60;99.90
19972;DHT22;10147;16.402;102.848;2023-04-24T13:12:12;30.50;99.90
19972;DHT22;10147;16.402;102.848;2023-04-24T13:14:42;30.40;99.90
19972;DHT22;10147;16.402;102.848;2023-04-24T13:17:13;30.40;99.90
19972;DHT22;10147;16.402;102.848;2023-04-24T13:19:44;30.30;99.90
19972;DHT22;10147;16.402;102.848;2023-04-24T13:22:15;30.30;99.90
19972;DHT22;10147;16.402;102.848;2023-04-24T13:24:47;30.30;99.90
19972;DHT22;10147;16.402;102.848;2023-04-24T13:27:20;30.20;99.90
19972;DHT22;10147;16.402;102.848;2023-04-24T13:29:50;30.30;99.90
19972;DHT22;10147;16.402;102.848;2023-04-24T13:32:20;30.20;99.90
19972;DHT22;10147;16.402;102.848;2023-04-24T13:34:51;30.20;99.90
19972;DHT22;10147;16.402;102.848;2023-04-24T13:37:21;30.10;99.90
19972;DHT22;10147;16.402;102.848;2023-04-24T13:39:52;30.00;99.90
19972;DHT22;10147;16.402;102.848;2023-04-24T13:42:22;30.00;99.90
19972;DHT22;10147;16.402;102.848;2023-04-24T13:44:52;29.90;99.90
19972;DHT22;10147;16.402;102.848;2023-04-24T13:47:23;29.90;99.90
19972;DHT22;10147;16.402;102.848;2023-04-24T13:49:53;29.90;99.90
19972;DHT22;10147;16.402;102.848;2023-04-24T13:52:23;29.90;99.90
19972;DHT22;10147;16.402;102.848;2023-04-24T13:54:53;29.90;99.90
19972;DHT22;10147;16.402;102.848;2023-04-24T13:57:23;29.80;99.90
19972;DHT22;10147;16.402;102.848;2023-04-24T13:59:54;29.90;99.90
19972;DHT22;10147;16.402;102.848;2023-04-24T14:02:25;29.90;99.90
19972;DHT22;10147;16.402;102.848;2023-04-24T14:04:55;29.90;99.90
19972;DHT22;10147;16.402;102.848;2023-04-24T14:07:25;29.90;99.90
19972;DHT22;10147;16.402;102.848;2023-04-24T14:09:55;29.90;99.90
19972;DHT22;10147;16.402;102.848;2023-04-24T14:12:26;29.90;99.90
19972;DHT22;10147;16.402;102.848;2023-04-24T14:14:58;29.90;99.90
19972;DHT22;10147;16.402;102.848;2023-04-24T14:17:31;29.90;99.90
19972;DHT22;10147;16.402;102.848;2023-04-24T14:20:01;29.80;99.90
19972;DHT22;10147;16.402;102.848;2023-04-24T14:22:33;29.70;99.90
19972;DHT22;10147;16.402;102.848;2023-04-24T14:25:05;29.90;99.90
19972;DHT22;10147;16.402;102.848;2023-04-24T14:27:35;29.90;99.90
19972;DHT22;10147;16.402;102.848;2023-04-24T14:30:06;29.90;99.90
19972;DHT22;10147;16.402;102.848;2023-04-24T14:32:38;29.80;99.90
19972;DHT22;10147;16.402;102.848;2023-04-24T14:35:09;29.80;99.90
19972;DHT22;10147;16.402;102.848;2023-04-24T14:37:39;29.70;99.90
19972;DHT22;10147;16.402;102.848;2023-04-24T14:40:10;29.70;99.90
19972;DHT22;10147;16.402;102.848;2023-04-24T14:43:00;29.70;99.90
19972;DHT22;10147;16.402;102.848;2023-04-24T14:45:31;29.80;99.90
19972;DHT22;10147;16.402;102.848;2023-04-24T14:48:01;29.80;99.90
19972;DHT22;10147;16.402;102.848;2023-04-24T14:50:31;29.80;99.90
19972;DHT22;10147;16.402;102.848;2023-04-24T14:53:01;29.50;99.90
19972;DHT22;10147;16.402;102.848;2023-04-24T14:55:31;29.60;99.90
19972;DHT22;10147;16.402;102.848;2023-04-24T14:58:04;29.60;99.90
19972;DHT22;10147;16.402;102.848;2023-04-24T15:00:34;29.60;99.90
19972;DHT22;10147;16.402;102.848;2023-04-24T15:03:04;29.60;99.90
19972;DHT22;10147;16.402;102.848;2023-04-24T15:05:34;29.60;99.90
19972;DHT22;10147;16.402;102.848;2023-04-24T15:08:07;29.60;99.90
19972;DHT22;10147;16.402;102.848;2023-04-24T15:10:37;29.50;99.90
19972;DHT22;10147;16.402;102.848;2023-04-24T15:13:07;29.50;99.90
19972;DHT22;10147;16.402;102.848;2023-04-24T15:15:37;29.50;99.90
19972;DHT22;10147;16.402;102.848;2023-04-24T15:18:09;29.50;99.90
19972;DHT22;10147;16.402;102.848;2023-04-24T15:20:40;29.40;99.90
19972;DHT22;10147;16.402;102.848;2023-04-24T15:23:13;29.50;99.90
19972;DHT22;10147;16.402;102.848;2023-04-24T15:25:44;29.60;99.90
19972;DHT22;10147;16.402;102.848;2023-04-24T15:28:14;29.40;99.90
19972;DHT22;10147;16.402;102.848;2023-04-24T15:30:45;29.20;99.90
19972;DHT22;10147;16.402;102.848;2023-04-24T15:33:16;29.20;99.90